sensor_id;sensor_type;location;lat;lon;timestamp;pressure;altitude;pressure_sealevel;temperature;humidity
42587;BME280;28216;53.362;-6.288;2023-03-23T00:01:08;98521.50;;;7.65;100.00
42587;BME280;28216;53.362;-6.288;2023-03-23T00:03:38;98530.13;;;7.66;100.00
42587;BME280;28216;53.362;-6.288;2023-03-23T00:06:04;98532.19;;;7.77;100.00
42587;BME280;28216;53.362;-6.288;2023-03-23T00:08:33;98532.19;;;7.84;100.00
42587;BME280;28216;53.362;-6.288;2023-03-23T00:11:04;98538.03;;;7.86;100.00
42587;BME280;28216;53.362;-6.288;2023-03-23T00:13:29;98541.63;;;7.85;100.00
42587;BME280;28216;53.362;-6.288;2023-03-23T00:15:55;98544.25;;;7.91;100.00
42587;BME280;28216;53.362;-6.288;2023-03-23T00:18:25;98531.84;;;8.00;100.00
42587;BME280;28216;53.362;-6.288;2023-03-23T00:20:56;98544.47;;;7.96;100.00
42587;BME280;28216;53.362;-6.288;2023-03-23T00:23:25;98540.47;;;8.01;100.00
42587;BME280;28216;53.362;-6.288;2023-03-23T00:25:53;98541.28;;;8.08;100.00
42587;BME280;28216;53.362;-6.288;2023-03-23T00:28:22;98541.69;;;8.05;100.00
42587;BME280;28216;53.362;-6.288;2023-03-23T00:31:04;98535.28;;;8.14;100.00
42587;BME280;28216;53.362;-6.288;2023-03-23T00:33:34;98531.69;;;8.15;100.00
42587;BME280;28216;53.362;-6.288;2023-03-23T00:36:04;98536.47;;;8.05;100.00
42587;BME280;28216;53.362;-6.288;2023-03-23T00:38:31;98532.06;;;8.12;100.00
42587;BME280;28216;53.362;-6.288;2023-03-23T00:40:57;98525.84;;;8.13;100.00
42587;BME280;28216;53.362;-6.288;2023-03-23T00:43:23;98522.41;;;8.06;100.00
42587;BME280;28216;53.362;-6.288;2023-03-23T00:45:54;98533.88;;;8.11;100.00
42587;BME280;28216;53.362;-6.288;2023-03-23T00:48:21;98521.84;;;8.17;100.00
42587;BME280;28216;53.362;-6.288;2023-03-23T00:50:47;98523.84;;;8.08;100.00
42587;BME280;28216;53.362;-6.288;2023-03-23T00:53:13;98533.88;;;8.05;100.00
42587;BME280;28216;53.362;-6.288;2023-03-23T00:55:42;98528.66;;;8.11;100.00
42587;BME280;28216;53.362;-6.288;2023-03-23T00:58:09;98550.56;;;8.17;100.00
42587;BME280;28216;53.362;-6.288;2023-03-23T01:00:35;98532.47;;;8.15;100.00
42587;BME280;28216;53.362;-6.288;2023-03-23T01:03:01;98546.78;;;8.19;100.00
42587;BME280;28216;53.362;-6.288;2023-03-23T01:05:26;98552.19;;;8.24;100.00
42587;BME280;28216;53.362;-6.288;2023-03-23T01:08:00;98547.38;;;8.28;100.00
42587;BME280;28216;53.362;-6.288;2023-03-23T01:10:27;98550.25;;;8.33;100.00
42587;BME280;28216;53.362;-6.288;2023-03-23T01:12:53;98549.25;;;8.34;100.00
42587;BME280;28216;53.362;-6.288;2023-03-23T01:15:19;98550.41;;;8.32;100.00
42587;BME280;28216;53.362;-6.288;2023-03-23T01:17:46;98552.03;;;8.33;100.00
42587;BME280;28216;53.362;-6.288;2023-03-23T01:20:13;98547.19;;;8.23;100.00
42587;BME280;28216;53.362;-6.288;2023-03-23T01:22:41;98557.47;;;8.38;100.00
42587;BME280;28216;53.362;-6.288;2023-03-23T01:25:07;98550.06;;;8.41;100.00
42587;BME280;28216;53.362;-6.288;2023-03-23T01:27:32;98549.25;;;8.41;100.00
42587;BME280;28216;53.362;-6.288;2023-03-23T01:29:58;98556.44;;;8.32;100.00
42587;BME280;28216;53.362;-6.288;2023-03-23T01:32:23;98545.78;;;8.20;100.00
42587;BME280;28216;53.362;-6.288;2023-03-23T01:34:49;98552.81;;;8.26;100.00
42587;BME280;28216;53.362;-6.288;2023-03-23T01:37:14;98548.19;;;8.28;100.00
42587;BME280;28216;53.362;-6.288;2023-03-23T01:39:41;98564.03;;;8.20;100.00
42587;BME280;28216;53.362;-6.288;2023-03-23T01:42:08;98565.59;;;8.08;100.00
42587;BME280;28216;53.362;-6.288;2023-03-23T01:46:59;98558.56;;;8.09;100.00
42587;BME280;28216;53.362;-6.288;2023-03-23T01:49:29;98576.22;;;8.07;100.00
42587;BME280;28216;53.362;-6.288;2023-03-23T01:52:03;98563.19;;;8.07;100.00
42587;BME280;28216;53.362;-6.288;2023-03-23T01:54:30;98554.13;;;8.03;100.00
42587;BME280;28216;53.362;-6.288;2023-03-23T01:57:02;98546.69;;;8.00;100.00
42587;BME280;28216;53.362;-6.288;2023-03-23T01:59:29;98546.91;;;7.98;100.00
42587;BME280;28216;53.362;-6.288;2023-03-23T02:01:55;98538.25;;;7.91;100.00
42587;BME280;28216;53.362;-6.288;2023-03-23T02:04:22;98540.63;;;7.79;100.00
42587;BME280;28216;53.362;-6.288;2023-03-23T02:06:48;98535.00;;;7.82;100.00
42587;BME280;28216;53.362;-6.288;2023-03-23T02:09:15;98535.19;;;7.74;100.00
42587;BME280;28216;53.362;-6.288;2023-03-23T02:11:43;98544.63;;;7.82;100.00
42587;BME280;28216;53.362;-6.288;2023-03-23T02:14:09;98534.19;;;7.82;100.00
42587;BME280;28216;53.362;-6.288;2023-03-23T02:16:42;98534.63;;;7.92;100.00
42587;BME280;28216;53.362;-6.288;2023-03-23T02:35:38;98502.69;;;7.83;100.00
42587;BME280;28216;53.362;-6.288;2023-03-23T02:38:43;98508.50;;;7.79;100.00
42587;BME280;28216;53.362;-6.288;2023-03-23T02:41:01;98496.66;;;7.76;100.00
42587;BME280;28216;53.362;-6.288;2023-03-23T02:43:31;98503.69;;;7.76;100.00
42587;BME280;28216;53.362;-6.288;2023-03-23T02:45:58;98506.09;;;7.77;100.00
42587;BME280;28216;53.362;-6.288;2023-03-23T02:48:29;98490.25;;;7.85;100.00
42587;BME280;28216;53.362;-6.288;2023-03-23T02:50:57;98493.88;;;7.91;100.00
42587;BME280;28216;53.362;-6.288;2023-03-23T02:53:24;98487.28;;;7.95;100.00
42587;BME280;28216;53.362;-6.288;2023-03-23T02:55:53;98485.44;;;7.89;100.00
42587;BME280;28216;53.362;-6.288;2023-03-23T02:58:20;98489.28;;;7.93;100.00
42587;BME280;28216;53.362;-6.288;2023-03-23T03:00:48;98492.69;;;8.00;100.00
42587;BME280;28216;53.362;-6.288;2023-03-23T03:03:17;98489.91;;;8.08;100.00
42587;BME280;28216;53.362;-6.288;2023-03-23T03:05:59;98495.72;;;8.10;100.00
42587;BME280;28216;53.362;-6.288;2023-03-23T03:08:50;98499.75;;;8.06;100.00
42587;BME280;28216;53.362;-6.288;2023-03-23T03:11:20;98499.16;;;8.11;100.00
42587;BME280;28216;53.362;-6.288;2023-03-23T03:14:19;98497.72;;;8.08;100.00
42587;BME280;28216;53.362;-6.288;2023-03-23T03:17:19;98491.13;;;8.12;100.00
42587;BME280;28216;53.362;-6.288;2023-03-23T03:19:48;98495.31;;;8.07;100.00
42587;BME280;28216;53.362;-6.288;2023-03-23T03:22:16;98484.47;;;8.03;100.00
42587;BME280;28216;53.362;-6.288;2023-03-23T03:24:43;98481.88;;;8.03;100.00
42587;BME280;28216;53.362;-6.288;2023-03-23T03:27:14;98478.06;;;8.06;100.00
42587;BME280;28216;53.362;-6.288;2023-03-23T03:29:44;98477.47;;;8.10;100.00
42587;BME280;28216;53.362;-6.288;2023-03-23T03:32:17;98467.00;;;7.97;100.00
42587;BME280;28216;53.362;-6.288;2023-03-23T03:34:43;98461.41;;;8.07;100.00
42587;BME280;28216;53.362;-6.288;2023-03-23T03:37:10;98466.41;;;8.08;100.00
42587;BME280;28216;53.362;-6.288;2023-03-23T03:39:37;98466.81;;;8.05;100.00
42587;BME280;28216;53.362;-6.288;2023-03-23T03:42:04;98451.56;;;8.09;100.00
42587;BME280;28216;53.362;-6.288;2023-03-23T03:44:30;98436.09;;;8.07;100.00
42587;BME280;28216;53.362;-6.288;2023-03-23T03:46:56;98432.88;;;8.05;100.00
42587;BME280;28216;53.362;-6.288;2023-03-23T03:49:21;98419.03;;;7.91;100.00
42587;BME280;28216;53.362;-6.288;2023-03-23T03:51:48;98413.00;;;7.97;100.00
42587;BME280;28216;53.362;-6.288;2023-03-23T03:54:13;98412.19;;;7.90;100.00
42587;BME280;28216;53.362;-6.288;2023-03-23T03:56:39;98409.19;;;7.93;100.00
42587;BME280;28216;53.362;-6.288;2023-03-23T03:59:09;98397.34;;;7.84;100.00
42587;BME280;28216;53.362;-6.288;2023-03-23T04:01:36;98399.56;;;7.81;100.00
42587;BME280;28216;53.362;-6.288;2023-03-23T04:04:02;98392.94;;;7.78;100.00
42587;BME280;28216;53.362;-6.288;2023-03-23T04:06:28;98396.13;;;7.74;100.00
42587;BME280;28216;53.362;-6.288;2023-03-23T04:08:57;98387.69;;;7.65;100.00
42587;BME280;28216;53.362;-6.288;2023-03-23T04:11:24;98390.91;;;7.60;100.00
42587;BME280;28216;53.362;-6.288;2023-03-23T04:13:50;98388.88;;;7.62;100.00
42587;BME280;28216;53.362;-6.288;2023-03-23T04:16:16;98395.69;;;7.57;100.00
42587;BME280;28216;53.362;-6.288;2023-03-23T04:18:42;98397.13;;;7.59;100.00
42587;BME280;28216;53.362;-6.288;2023-03-23T04:21:10;98393.50;;;7.54;100.00
42587;BME280;28216;53.362;-6.288;2023-03-23T04:23:36;98394.09;;;7.49;100.00
42587;BME280;28216;53.362;-6.288;2023-03-23T04:26:03;98400.28;;;7.48;100.00
42587;BME280;28216;53.362;-6.288;2023-03-23T04:28:29;98399.69;;;7.46;100.00
42587;BME280;28216;53.362;-6.288;2023-03-23T04:30:59;98391.06;;;7.46;100.00
42587;BME280;28216;53.362;-6.288;2023-03-23T04:33:27;98391.25;;;7.44;100.00
42587;BME280;28216;53.362;-6.288;2023-03-23T04:35:54;98392.25;;;7.43;100.00
42587;BME280;28216;53.362;-6.288;2023-03-23T04:38:22;98393.22;;;7.42;100.00
42587;BME280;28216;53.362;-6.288;2023-03-23T04:40:49;98397.03;;;7.40;100.00
42587;BME280;28216;53.362;-6.288;2023-03-23T04:43:20;98387.22;;;7.42;100.00
42587;BME280;28216;53.362;-6.288;2023-03-23T04:45:52;98391.06;;;7.46;100.00
42587;BME280;28216;53.362;-6.288;2023-03-23T04:48:22;98395.66;;;7.44;100.00
42587;BME280;28216;53.362;-6.288;2023-03-23T04:50:48;98393.44;;;7.41;100.00
42587;BME280;28216;53.362;-6.288;2023-03-23T04:53:16;98400.25;;;7.42;100.00
42587;BME280;28216;53.362;-6.288;2023-03-23T04:55:43;98397.66;;;7.42;100.00
42587;BME280;28216;53.362;-6.288;2023-03-23T04:58:09;98403.28;;;7.45;100.00
42587;BME280;28216;53.362;-6.288;2023-03-23T05:00:35;98394.88;;;7.43;100.00
42587;BME280;28216;53.362;-6.288;2023-03-23T05:03:02;98399.69;;;7.46;100.00
42587;BME280;28216;53.362;-6.288;2023-03-23T05:05:28;98390.00;;;7.40;100.00
42587;BME280;28216;53.362;-6.288;2023-03-23T05:07:56;98403.50;;;7.44;100.00
42587;BME280;28216;53.362;-6.288;2023-03-23T05:10:22;98402.06;;;7.41;100.00
42587;BME280;28216;53.362;-6.288;2023-03-23T05:12:47;98396.03;;;7.41;100.00
42587;BME280;28216;53.362;-6.288;2023-03-23T05:15:14;98405.28;;;7.43;100.00
42587;BME280;28216;53.362;-6.288;2023-03-23T05:17:41;98397.50;;;7.50;100.00
42587;BME280;28216;53.362;-6.288;2023-03-23T05:20:11;98406.31;;;7.49;100.00
42587;BME280;28216;53.362;-6.288;2023-03-23T05:22:37;98409.91;;;7.48;100.00
42587;BME280;28216;53.362;-6.288;2023-03-23T05:25:04;98404.47;;;7.43;100.00
42587;BME280;28216;53.362;-6.288;2023-03-23T05:27:31;98406.06;;;7.37;100.00
42587;BME280;28216;53.362;-6.288;2023-03-23T05:29:57;98405.47;;;7.42;100.00
42587;BME280;28216;53.362;-6.288;2023-03-23T05:32:25;98410.88;;;7.40;100.00
42587;BME280;28216;53.362;-6.288;2023-03-23T05:35:01;98403.06;;;7.40;100.00
42587;BME280;28216;53.362;-6.288;2023-03-23T05:37:27;98401.44;;;7.39;100.00
42587;BME280;28216;53.362;-6.288;2023-03-23T05:39:58;98410.06;;;7.40;100.00
42587;BME280;28216;53.362;-6.288;2023-03-23T05:42:28;98411.06;;;7.39;100.00
42587;BME280;28216;53.362;-6.288;2023-03-23T05:44:54;98410.88;;;7.40;100.00
42587;BME280;28216;53.362;-6.288;2023-03-23T05:47:19;98411.06;;;7.32;100.00
42587;BME280;28216;53.362;-6.288;2023-03-23T05:49:45;98417.28;;;7.38;100.00
42587;BME280;28216;53.362;-6.288;2023-03-23T05:52:11;98414.69;;;7.38;100.00
42587;BME280;28216;53.362;-6.288;2023-03-23T05:54:36;98419.66;;;7.32;100.00
42587;BME280;28216;53.362;-6.288;2023-03-23T05:57:02;98423.09;;;7.33;100.00
42587;BME280;28216;53.362;-6.288;2023-03-23T05:59:28;98424.50;;;7.36;100.00
42587;BME280;28216;53.362;-6.288;2023-03-23T06:01:53;98414.47;;;7.39;100.00
42587;BME280;28216;53.362;-6.288;2023-03-23T06:04:19;98412.25;;;7.36;100.00
42587;BME280;28216;53.362;-6.288;2023-03-23T06:06:46;98407.28;;;7.41;100.00
42587;BME280;28216;53.362;-6.288;2023-03-23T06:09:11;98405.09;;;7.45;100.00
42587;BME280;28216;53.362;-6.288;2023-03-23T06:11:42;98403.28;;;7.45;100.00
42587;BME280;28216;53.362;-6.288;2023-03-23T06:14:08;98404.72;;;7.48;100.00
42587;BME280;28216;53.362;-6.288;2023-03-23T06:16:34;98398.69;;;7.47;100.00
42587;BME280;28216;53.362;-6.288;2023-03-23T06:18:59;98397.88;;;7.47;100.00
42587;BME280;28216;53.362;-6.288;2023-03-23T06:21:26;98388.06;;;7.49;100.00
42587;BME280;28216;53.362;-6.288;2023-03-23T06:23:54;98394.69;;;7.51;100.00
42587;BME280;28216;53.362;-6.288;2023-03-23T06:26:25;98391.69;;;7.54;100.00
42587;BME280;28216;53.362;-6.288;2023-03-23T06:28:52;98387.28;;;7.55;100.00
42587;BME280;28216;53.362;-6.288;2023-03-23T06:31:17;98390.69;;;7.55;100.00
42587;BME280;28216;53.362;-6.288;2023-03-23T06:33:45;98386.28;;;7.56;100.00
42587;BME280;28216;53.362;-6.288;2023-03-23T06:36:12;98389.88;;;7.55;100.00
42587;BME280;28216;53.362;-6.288;2023-03-23T06:38:38;98384.66;;;7.55;100.00
42587;BME280;28216;53.362;-6.288;2023-03-23T06:41:04;98389.47;;;7.58;100.00
42587;BME280;28216;53.362;-6.288;2023-03-23T06:43:30;98395.31;;;7.60;100.00
42587;BME280;28216;53.362;-6.288;2023-03-23T06:45:58;98395.31;;;7.60;100.00
42587;BME280;28216;53.362;-6.288;2023-03-23T06:48:24;98388.47;;;7.59;100.00
42587;BME280;28216;53.362;-6.288;2023-03-23T06:50:50;98391.72;;;7.68;100.00
42587;BME280;28216;53.362;-6.288;2023-03-23T06:53:16;98393.72;;;7.72;100.00
42587;BME280;28216;53.362;-6.288;2023-03-23T06:55:43;98406.78;;;7.79;100.00
42587;BME280;28216;53.362;-6.288;2023-03-23T06:58:09;98402.97;;;7.81;100.00
42587;BME280;28216;53.362;-6.288;2023-03-23T07:00:35;98413.59;;;7.80;100.00
42587;BME280;28216;53.362;-6.288;2023-03-23T07:03:01;98418.22;;;7.84;100.00
42587;BME280;28216;53.362;-6.288;2023-03-23T07:05:27;98426.84;;;7.85;100.00
42587;BME280;28216;53.362;-6.288;2023-03-23T07:07:52;98416.63;;;7.90;100.00
42587;BME280;28216;53.362;-6.288;2023-03-23T07:10:18;98431.06;;;7.92;100.00
42587;BME280;28216;53.362;-6.288;2023-03-23T07:12:44;98431.06;;;7.92;100.00
42587;BME280;28216;53.362;-6.288;2023-03-23T07:15:10;98429.28;;;8.00;100.00
42587;BME280;28216;53.362;-6.288;2023-03-23T07:20:19;98425.09;;;8.18;100.00
42587;BME280;28216;53.362;-6.288;2023-03-23T07:22:45;98425.28;;;8.30;100.00
42587;BME280;28216;53.362;-6.288;2023-03-23T07:25:11;98431.13;;;8.52;100.00
42587;BME280;28216;53.362;-6.288;2023-03-23T07:27:36;98436.31;;;8.72;100.00
42587;BME280;28216;53.362;-6.288;2023-03-23T07:30:03;98434.25;;;9.07;100.00
42587;BME280;28216;53.362;-6.288;2023-03-23T07:32:29;98438.53;;;9.39;100.00
42587;BME280;28216;53.362;-6.288;2023-03-23T07:34:57;98429.38;;;9.68;100.00
42587;BME280;28216;53.362;-6.288;2023-03-23T07:37:26;98431.31;;;10.11;100.00
42587;BME280;28216;53.362;-6.288;2023-03-23T07:39:51;98431.78;;;10.58;100.00
42587;BME280;28216;53.362;-6.288;2023-03-23T07:42:17;98434.78;;;10.98;100.00
42587;BME280;28216;53.362;-6.288;2023-03-23T07:44:43;98430.41;;;11.10;100.00
42587;BME280;28216;53.362;-6.288;2023-03-23T07:47:08;98431.00;;;11.12;100.00
42587;BME280;28216;53.362;-6.288;2023-03-23T07:49:39;98440.84;;;11.35;100.00
42587;BME280;28216;53.362;-6.288;2023-03-23T07:52:06;98443.09;;;11.50;100.00
42587;BME280;28216;53.362;-6.288;2023-03-23T07:54:31;98430.44;;;11.58;100.00
42587;BME280;28216;53.362;-6.288;2023-03-23T07:56:57;98428.31;;;11.37;100.00
42587;BME280;28216;53.362;-6.288;2023-03-23T07:59:24;98433.56;;;11.37;100.00
42587;BME280;28216;53.362;-6.288;2023-03-23T08:01:53;98441.59;;;11.24;100.00
42587;BME280;28216;53.362;-6.288;2023-03-23T08:04:18;98435.59;;;10.98;100.00
42587;BME280;28216;53.362;-6.288;2023-03-23T08:06:44;98444.53;;;10.91;100.00
42587;BME280;28216;53.362;-6.288;2023-03-23T08:09:09;98434.28;;;10.89;100.00
42587;BME280;28216;53.362;-6.288;2023-03-23T08:11:35;98439.38;;;11.02;100.00
42587;BME280;28216;53.362;-6.288;2023-03-23T08:14:04;98440.06;;;11.16;100.00
42587;BME280;28216;53.362;-6.288;2023-03-23T08:16:31;98444.56;;;11.27;100.00
42587;BME280;28216;53.362;-6.288;2023-03-23T08:18:56;98440.69;;;11.11;100.00
42587;BME280;28216;53.362;-6.288;2023-03-23T08:21:22;98435.31;;;11.25;100.00
42587;BME280;28216;53.362;-6.288;2023-03-23T08:23:48;98433.41;;;11.32;100.00
42587;BME280;28216;53.362;-6.288;2023-03-23T08:29:49;98444.53;;;11.45;100.00
42587;BME280;28216;53.362;-6.288;2023-03-23T08:35:37;98445.47;;;11.51;100.00
42587;BME280;28216;53.362;-6.288;2023-03-23T08:38:03;98439.53;;;11.44;100.00
42587;BME280;28216;53.362;-6.288;2023-03-23T08:40:47;98433.47;;;11.43;100.00
42587;BME280;28216;53.362;-6.288;2023-03-23T08:43:13;98437.97;;;11.55;100.00
42587;BME280;28216;53.362;-6.288;2023-03-23T08:45:40;98431.38;;;11.64;100.00
42587;BME280;28216;53.362;-6.288;2023-03-23T08:48:07;98428.63;;;11.59;100.00
42587;BME280;28216;53.362;-6.288;2023-03-23T08:50:35;98430.69;;;11.57;100.00
42587;BME280;28216;53.362;-6.288;2023-03-23T08:53:01;98426.53;;;11.49;100.00
42587;BME280;28216;53.362;-6.288;2023-03-23T08:55:28;98445.88;;;11.36;100.00
42587;BME280;28216;53.362;-6.288;2023-03-23T08:57:54;98438.28;;;11.10;100.00
42587;BME280;28216;53.362;-6.288;2023-03-23T09:00:21;98431.00;;;11.30;100.00
42587;BME280;28216;53.362;-6.288;2023-03-23T09:02:50;98450.59;;;11.46;100.00
42587;BME280;28216;53.362;-6.288;2023-03-23T09:05:19;98440.94;;;11.58;100.00
42587;BME280;28216;53.362;-6.288;2023-03-23T09:07:47;98447.63;;;11.72;100.00
42587;BME280;28216;53.362;-6.288;2023-03-23T09:10:44;98443.47;;;11.83;100.00
42587;BME280;28216;53.362;-6.288;2023-03-23T09:16:12;98456.69;;;12.06;100.00
42587;BME280;28216;53.362;-6.288;2023-03-23T09:18:38;98446.75;;;12.08;100.00
42587;BME280;28216;53.362;-6.288;2023-03-23T09:21:04;98454.31;;;12.17;100.00
42587;BME280;28216;53.362;-6.288;2023-03-23T09:26:32;98454.22;;;12.35;100.00
42587;BME280;28216;53.362;-6.288;2023-03-23T09:28:58;98448.88;;;12.41;100.00
42587;BME280;28216;53.362;-6.288;2023-03-23T09:31:24;98451.03;;;12.56;100.00
42587;BME280;28216;53.362;-6.288;2023-03-23T09:33:52;98482.13;;;12.59;100.00
42587;BME280;28216;53.362;-6.288;2023-03-23T09:36:18;98471.03;;;12.46;100.00
42587;BME280;28216;53.362;-6.288;2023-03-23T09:38:47;98468.63;;;12.32;100.00
42587;BME280;28216;53.362;-6.288;2023-03-23T09:46:55;98468.19;;;11.94;100.00
42587;BME280;28216;53.362;-6.288;2023-03-23T09:49:33;98460.66;;;11.97;100.00
42587;BME280;28216;53.362;-6.288;2023-03-23T09:52:15;98464.00;;;12.04;100.00
42587;BME280;28216;53.362;-6.288;2023-03-23T09:54:46;98455.63;;;11.96;100.00
42587;BME280;28216;53.362;-6.288;2023-03-23T09:57:19;98461.50;;;11.80;100.00
42587;BME280;28216;53.362;-6.288;2023-03-23T10:00:24;98453.22;;;11.76;100.00
42587;BME280;28216;53.362;-6.288;2023-03-23T10:03:02;98457.16;;;11.85;100.00
42587;BME280;28216;53.362;-6.288;2023-03-23T10:05:48;98449.38;;;12.08;100.00
42587;BME280;28216;53.362;-6.288;2023-03-23T10:08:20;98448.50;;;12.26;100.00
42587;BME280;28216;53.362;-6.288;2023-03-23T10:16:12;98464.88;;;12.52;100.00
42587;BME280;28216;53.362;-6.288;2023-03-23T10:21:28;98458.88;;;12.21;100.00
42587;BME280;28216;53.362;-6.288;2023-03-23T10:24:04;98461.75;;;12.31;100.00
42587;BME280;28216;53.362;-6.288;2023-03-23T10:48:39;98467.72;;;13.44;100.00
42587;BME280;28216;53.362;-6.288;2023-03-23T11:35:03;98469.75;;;13.53;100.00
42587;BME280;28216;53.362;-6.288;2023-03-23T11:40:52;98462.50;;;13.60;100.00
42587;BME280;28216;53.362;-6.288;2023-03-23T11:48:57;98442.66;;;13.41;100.00
42587;BME280;28216;53.362;-6.288;2023-03-23T11:51:45;98458.44;;;13.41;100.00
42587;BME280;28216;53.362;-6.288;2023-03-23T11:56:44;98453.66;;;13.38;100.00
42587;BME280;28216;53.362;-6.288;2023-03-23T11:59:15;98461.56;;;13.38;100.00
42587;BME280;28216;53.362;-6.288;2023-03-23T12:01:56;98457.09;;;13.27;100.00
42587;BME280;28216;53.362;-6.288;2023-03-23T12:10:24;98459.13;;;13.48;100.00
42587;BME280;28216;53.362;-6.288;2023-03-23T12:15:55;98437.66;;;13.85;100.00
42587;BME280;28216;53.362;-6.288;2023-03-23T12:22:52;98418.16;;;14.31;100.00
42587;BME280;28216;53.362;-6.288;2023-03-23T12:37:51;98419.75;;;15.26;100.00
42587;BME280;28216;53.362;-6.288;2023-03-23T13:27:16;98381.47;;;14.63;99.03
42587;BME280;28216;53.362;-6.288;2023-03-23T13:36:30;98367.28;;;15.08;96.40
42587;BME280;28216;53.362;-6.288;2023-03-23T13:44:55;98355.38;;;15.27;91.58
42587;BME280;28216;53.362;-6.288;2023-03-23T13:47:39;98352.00;;;15.10;89.23
42587;BME280;28216;53.362;-6.288;2023-03-23T13:50:12;98347.66;;;14.99;91.88
42587;BME280;28216;53.362;-6.288;2023-03-23T13:57:58;98349.94;;;14.90;92.76
42587;BME280;28216;53.362;-6.288;2023-03-23T14:00:44;98347.06;;;14.91;94.69
42587;BME280;28216;53.362;-6.288;2023-03-23T14:05:50;98355.53;;;14.93;93.92
42587;BME280;28216;53.362;-6.288;2023-03-23T14:10:58;98327.47;;;14.87;90.34
42587;BME280;28216;53.362;-6.288;2023-03-23T14:13:34;98332.81;;;14.92;89.82
42587;BME280;28216;53.362;-6.288;2023-03-23T14:16:12;98329.38;;;14.92;89.25
42587;BME280;28216;53.362;-6.288;2023-03-23T14:18:40;98319.41;;;14.77;89.88
42587;BME280;28216;53.362;-6.288;2023-03-23T14:21:14;98331.31;;;14.80;90.59
42587;BME280;28216;53.362;-6.288;2023-03-23T14:23:41;98324.13;;;14.75;90.38
42587;BME280;28216;53.362;-6.288;2023-03-23T14:26:12;98315.00;;;14.61;90.34
42587;BME280;28216;53.362;-6.288;2023-03-23T14:28:43;98312.00;;;14.74;91.91
42587;BME280;28216;53.362;-6.288;2023-03-23T14:31:21;98303.66;;;14.82;92.52
42587;BME280;28216;53.362;-6.288;2023-03-23T14:33:48;98319.22;;;14.84;92.86
42587;BME280;28216;53.362;-6.288;2023-03-23T14:36:20;98308.88;;;14.77;90.27
42587;BME280;28216;53.362;-6.288;2023-03-23T14:38:46;98301.16;;;14.92;90.68
42587;BME280;28216;53.362;-6.288;2023-03-23T14:41:12;98306.66;;;15.13;90.79
42587;BME280;28216;53.362;-6.288;2023-03-23T14:43:38;98301.38;;;15.13;90.58
42587;BME280;28216;53.362;-6.288;2023-03-23T14:46:10;98302.41;;;15.12;91.58
42587;BME280;28216;53.362;-6.288;2023-03-23T14:48:38;98301.25;;;15.03;92.44
42587;BME280;28216;53.362;-6.288;2023-03-23T14:51:05;98307.94;;;15.10;93.34
42587;BME280;28216;53.362;-6.288;2023-03-23T14:53:36;98299.81;;;14.90;93.58
42587;BME280;28216;53.362;-6.288;2023-03-23T14:56:09;98303.28;;;14.74;95.11
42587;BME280;28216;53.362;-6.288;2023-03-23T14:58:38;98282.38;;;14.67;94.82
42587;BME280;28216;53.362;-6.288;2023-03-23T15:01:10;98283.22;;;14.73;96.56
42587;BME280;28216;53.362;-6.288;2023-03-23T15:03:43;98272.91;;;14.71;97.14
42587;BME280;28216;53.362;-6.288;2023-03-23T15:06:15;98277.84;;;14.62;97.96
42587;BME280;28216;53.362;-6.288;2023-03-23T15:08:42;98254.53;;;14.54;98.01
42587;BME280;28216;53.362;-6.288;2023-03-23T15:13:43;98261.66;;;14.54;99.13
42587;BME280;28216;53.362;-6.288;2023-03-23T15:16:17;98251.03;;;14.49;99.17
42587;BME280;28216;53.362;-6.288;2023-03-23T15:19:18;98258.97;;;14.32;100.00
42587;BME280;28216;53.362;-6.288;2023-03-23T15:24:31;98252.59;;;14.11;95.49
42587;BME280;28216;53.362;-6.288;2023-03-23T15:29:31;98250.88;;;14.00;95.17
42587;BME280;28216;53.362;-6.288;2023-03-23T15:31:57;98247.94;;;13.80;95.47
42587;BME280;28216;53.362;-6.288;2023-03-23T15:34:33;98249.41;;;13.71;96.10
42587;BME280;28216;53.362;-6.288;2023-03-23T15:37:13;98247.94;;;13.80;100.00
42587;BME280;28216;53.362;-6.288;2023-03-23T15:39:50;98268.63;;;13.54;100.00
42587;BME280;28216;53.362;-6.288;2023-03-23T15:42:30;98262.88;;;13.57;100.00
42587;BME280;28216;53.362;-6.288;2023-03-23T15:45:16;98256.09;;;13.61;100.00
42587;BME280;28216;53.362;-6.288;2023-03-23T15:47:46;98255.53;;;13.59;100.00
42587;BME280;28216;53.362;-6.288;2023-03-23T15:50:19;98256.66;;;13.47;100.00
42587;BME280;28216;53.362;-6.288;2023-03-23T15:52:45;98253.03;;;13.36;100.00
42587;BME280;28216;53.362;-6.288;2023-03-23T15:57:48;98248.41;;;13.26;100.00
42587;BME280;28216;53.362;-6.288;2023-03-23T16:00:16;98238.19;;;13.30;100.00
42587;BME280;28216;53.362;-6.288;2023-03-23T16:02:45;98246.97;;;13.19;100.00
42587;BME280;28216;53.362;-6.288;2023-03-23T16:05:12;98229.13;;;13.09;100.00
42587;BME280;28216;53.362;-6.288;2023-03-23T16:07:37;98223.41;;;13.12;100.00
42587;BME280;28216;53.362;-6.288;2023-03-23T16:10:04;98226.94;;;13.18;100.00
42587;BME280;28216;53.362;-6.288;2023-03-23T16:12:30;98223.06;;;13.09;100.00
42587;BME280;28216;53.362;-6.288;2023-03-23T16:14:56;98220.13;;;13.05;100.00
42587;BME280;28216;53.362;-6.288;2023-03-23T16:17:21;98210.41;;;13.05;100.00
42587;BME280;28216;53.362;-6.288;2023-03-23T16:19:47;98216.53;;;13.11;100.00
42587;BME280;28216;53.362;-6.288;2023-03-23T16:22:12;98216.31;;;13.13;100.00
42587;BME280;28216;53.362;-6.288;2023-03-23T16:24:38;98211.28;;;13.11;100.00
42587;BME280;28216;53.362;-6.288;2023-03-23T16:27:04;98225.47;;;13.10;100.00
42587;BME280;28216;53.362;-6.288;2023-03-23T16:29:30;98216.59;;;12.99;100.00
42587;BME280;28216;53.362;-6.288;2023-03-23T16:31:56;98216.44;;;12.89;100.00
42587;BME280;28216;53.362;-6.288;2023-03-23T16:34:21;98231.56;;;12.82;100.00
42587;BME280;28216;53.362;-6.288;2023-03-23T16:36:47;98216.81;;;12.81;100.00
42587;BME280;28216;53.362;-6.288;2023-03-23T16:39:15;98208.44;;;12.84;100.00
42587;BME280;28216;53.362;-6.288;2023-03-23T16:41:43;98209.84;;;12.75;100.00
42587;BME280;28216;53.362;-6.288;2023-03-23T16:44:09;98215.34;;;12.73;100.00
42587;BME280;28216;53.362;-6.288;2023-03-23T16:46:34;98225.69;;;12.63;100.00
42587;BME280;28216;53.362;-6.288;2023-03-23T16:49:00;98218.13;;;12.67;100.00